^^
Grace C. Lehan Memorial Weather Station Historical Data
Daily Summary for June 27, 2022 Units:  English    Metric   Both
Daily Weekly Monthly Yearly
  High: Low: Average:
Temperature: 74.3 °F 64 °F 71.3 °F
Dew Point: 72.8 °F 59.2 °F 67.5 °F
Humidity: 95% 69% 88%
Wind Speed: 1mph 0mph 0mph
Wind Gust: 6mph - -
Wind- - WSW
Pressure: 29.98 in 29.87 in -
Precipitation: 0.58 in    
 
 
Tabular Data for June 27, 2022
Time Temperature Dew Point Pressure Wind Wind Speed Wind Gust Humidity Rainfall Rate (Hourly) solar
00:04 72.7 °F 62 °F 29.96 in Calm     69% 0.00 in 0 W/m2
00:09 72.6 °F 61.9 °F 29.96 in Calm     69% 0.00 in 0 W/m2
00:14 72.5 °F 61.8 °F 29.96 in Calm   1 mph 69% 0.00 in 0 W/m2
00:19 72.4 °F 61.9 °F 29.96 in Calm   1 mph 69.7% 0.00 in 0 W/m2
00:24 72.3 °F 62 °F 29.96 in Calm   1 mph 70% 0.00 in 0 W/m2
00:29 72.2 °F 61.9 °F 29.96 in Calm   1 mph 70% 0.00 in 0 W/m2
00:34 72.1 °F 61.9 °F 29.96 in Calm   1 mph 70.2% 0.00 in 0 W/m2
00:39 72 °F 62 °F 29.96 in Calm     70.6% 0.00 in 0 W/m2
00:44 72 °F 62.1 °F 29.96 in Calm     71% 0.00 in 0 W/m2
00:49 71.9 °F 62 °F 29.95 in Calm     71% 0.00 in 0 W/m2
00:54 71.9 °F 62 °F 29.95 in Calm     71% 0.00 in 0 W/m2
00:59 71.9 °F 62.2 °F 29.95 in Calm     71.6% 0.00 in 0 W/m2
01:04 71.9 °F 62.4 °F 29.95 in Calm     72% 0.00 in 0 W/m2
01:09 71.9 °F 62.4 °F 29.95 in Calm     72% 0.00 in 0 W/m2
01:14 71.8 °F 62.4 °F 29.95 in Calm     72.3% 0.00 in 0 W/m2
01:19 71.8 °F 62.4 °F 29.95 in Calm     72.3% 0.00 in 0 W/m2
01:24 71.7 °F 62.6 °F 29.95 in Calm     73% 0.00 in 0 W/m2
01:29 71.7 °F 62.6 °F 29.95 in Calm     73% 0.00 in 0 W/m2
01:34 71.7 °F 62.6 °F 29.95 in SSW 0.1 mph 5 mph 73% 0.00 in 0 W/m2
01:39 71.8 °F 63 °F 29.95 in Calm   5 mph 73.9% 0.00 in 0 W/m2
01:44 71.8 °F 63.1 °F 29.94 in Calm   5 mph 74% 0.00 in 0 W/m2
01:49 71.8 °F 63.1 °F 29.94 in Calm   5 mph 74% 0.00 in 0 W/m2
01:54 71.8 °F 63.3 °F 29.94 in SSW 0.1 mph 5 mph 74.7% 0.00 in 0 W/m2
01:59 71.7 °F 63.4 °F 29.95 in Calm   5 mph 75% 0.00 in 0 W/m2
02:04 71.7 °F 63.5 °F 29.94 in Calm   5 mph 75.4% 0.00 in 0 W/m2
02:09 71.6 °F 63.7 °F 29.94 in Calm     76% 0.00 in 0 W/m2
02:14 71.5 °F 63.6 °F 29.94 in SW 0.1 mph 3 mph 76.1% 0.00 in 0 W/m2
02:19 71.4 °F 63.8 °F 29.94 in Calm   3 mph 77% 0.00 in 0 W/m2
02:24 71.3 °F 63.7 °F 29.94 in Calm   3 mph 77% 0.00 in 0 W/m2
02:29 71.3 °F 64.1 °F 29.94 in Calm   3 mph 78% 0.00 in 0 W/m2
02:34 71.2 °F 64.1 °F 29.94 in Calm   3 mph 78.1% 0.00 in 0 W/m2
02:39 71.3 °F 64.5 °F 29.94 in Calm   1 mph 79% 0.00 in 0 W/m2
02:44 71.3 °F 64.5 °F 29.93 in Calm   1 mph 79% 0.00 in 0 W/m2
02:49 71.4 °F 64.6 °F 29.93 in SW 0.2 mph 3 mph 79% 0.00 in 0 W/m2
02:54 71.5 °F 64.6 °F 29.93 in Calm   3 mph 79% 0.00 in 0 W/m2
02:59 71.5 °F 64.7 °F 29.93 in Calm   3 mph 79% 0.00 in 0 W/m2
03:04 71.6 °F 64.7 °F 29.93 in SW 0.2 mph 4 mph 79% 0.00 in 0 W/m2
03:09 71.6 °F 64.8 °F 29.92 in Calm   4 mph 79% 0.00 in 0 W/m2
03:14 71.6 °F 64.8 °F 29.92 in Calm   4 mph 79% 0.00 in 0 W/m2
03:19 71.6 °F 64.8 °F 29.92 in Calm   4 mph 79% 0.00 in 0 W/m2
03:24 71.6 °F 64.8 °F 29.92 in Calm   4 mph 79% 0.00 in 0 W/m2
03:29 71.6 °F 64.8 °F 29.92 in Calm   4 mph 79% 0.00 in 0 W/m2
03:34 71.6 °F 64.8 °F 29.92 in Calm   4 mph 79% 0.00 in 0 W/m2
03:39 71.6 °F 64.7 °F 29.92 in Calm     79% 0.00 in 0 W/m2
03:44 71.5 °F 64.7 °F 29.91 in Calm     79.3% 0.00 in 0 W/m2
03:49 71.4 °F 64.9 °F 29.91 in SW 0.1 mph 3 mph 80% 0.00 in 0 W/m2
03:54 71.4 °F 64.9 °F 29.91 in SW 0.1 mph 3 mph 80% 0.00 in 0 W/m2
03:59 71.4 °F 64.9 °F 29.90 in SW 0.1 mph 3 mph 80% 0.00 in 0 W/m2
04:04 71.5 °F 65 °F 29.90 in Calm     80% 0.00 in 0 W/m2
04:09 71.5 °F 65 °F 29.90 in SW 0.1 mph 2 mph 80% 0.00 in 0 W/m2
04:14 71.5 °F 65 °F 29.90 in SW 0.1 mph 3 mph 80% 0.00 in 0 W/m2
04:19 71.6 °F 65.1 °F 29.90 in Calm   3 mph 80% 0.00 in 0 W/m2
04:24 71.6 °F 65.1 °F 29.90 in SW 0.1 mph 3 mph 80% 0.00 in 0 W/m2
04:29 71.7 °F 65.2 °F 29.90 in SW 0.1 mph 3 mph 80% 0.00 in 0 W/m2
04:34 71.7 °F 65.2 °F 29.90 in Calm   3 mph 80% 0.00 in 0 W/m2
04:39 71.8 °F 65.5 °F 29.89 in WSW 0.2 mph 6 mph 80.5% 0.00 in 0 W/m2
04:44 71.8 °F 65.7 °F 29.89 in Calm   6 mph 81% 0.00 in 0 W/m2
04:49 71.7 °F 65.6 °F 29.89 in Calm   6 mph 81% 0.00 in 0 W/m2
04:54 71.7 °F 65.7 °F 29.89 in WSW 0.5 mph 6 mph 81.6% 0.00 in 0 W/m2
04:59 71.6 °F 65.8 °F 29.89 in West 0.1 mph 6 mph 82% 0.00 in 0 W/m2
05:04 71.5 °F 66 °F 29.89 in Calm   6 mph 82.8% 0.00 in 0 W/m2
05:09 71.4 °F 66 °F 29.89 in Calm     83% 0.00 in 0 W/m2
05:14 71.4 °F 66 °F 29.89 in Calm     83.2% 0.00 in 0 W/m2
05:19 71.4 °F 66.3 °F 29.89 in Calm     84% 0.00 in 0 W/m2
05:24 71.5 °F 66.4 °F 29.89 in West 0.4 mph 4 mph 84% 0.00 in 0 W/m2
05:29 71.5 °F 66.4 °F 29.89 in Calm   4 mph 84% 0.00 in 0 W/m2
05:34 71.5 °F 66.4 °F 29.89 in WSW 0.2 mph 5 mph 84% 0.00 in 0 W/m2
05:39 71.6 °F 66.5 °F 29.88 in WSW 0.1 mph 5 mph 84% 0.00 in 0 W/m2
05:44 71.6 °F 66.5 °F 29.88 in Calm   5 mph 84.1% 0.00 in 5 W/m2
05:49 71.6 °F 66.9 °F 29.88 in WSW 0.1 mph 5 mph 85% 0.00 in 7 W/m2
05:54 71.5 °F 66.8 °F 29.88 in Calm   5 mph 85% 0.00 in 11 W/m2
05:59 71.4 °F 66.9 °F 29.89 in WSW 0.2 mph 5 mph 85.6% 0.00 in 12 W/m2
06:04 71.4 °F 67 °F 29.89 in WSW 0.3 mph 5 mph 86% 0.00 in 18 W/m2
06:09 71.3 °F 66.9 °F 29.89 in WSW 0.4 mph 5 mph 86% 0.00 in 26 W/m2
06:14 71.3 °F 66.9 °F 29.88 in Calm   5 mph 86% 0.00 in 26 W/m2
06:19 71.4 °F 67 °F 29.88 in WSW 0.1 mph 5 mph 86% 0.00 in 25 W/m2
06:24 71.4 °F 67 °F 29.88 in WSW 0.1 mph 5 mph 86% 0.00 in 19 W/m2
06:29 71.4 °F 67 °F 29.88 in West 0.2 mph 5 mph 86% 0.00 in 19 W/m2
06:34 71.5 °F 67.1 °F 29.88 in Calm   5 mph 86% 0.00 in 19 W/m2
06:39 71.5 °F 67.1 °F 29.88 in Calm   3 mph 86% 0.00 in 21 W/m2
06:44 71.5 °F 67.1 °F 29.88 in WSW 0.1 mph 3 mph 86% 0.00 in 30 W/m2
06:49 71.5 °F 67.1 °F 29.88 in WSW 0.1 mph 3 mph 86% 0.00 in 46 W/m2
06:54 71.6 °F 67.3 °F 29.88 in Calm   3 mph 86.2% 0.00 in 46 W/m2
06:59 71.7 °F 67.6 °F 29.88 in Calm   3 mph 87% 0.00 in 39 W/m2
07:04 71.7 °F 67.4 °F 29.88 in Calm   3 mph 86.3% 0.00 in 37 W/m2
07:09 71.8 °F 67.4 °F 29.88 in WSW 0.4 mph 6 mph 86% 0.00 in 39 W/m2
07:14 71.8 °F 67.4 °F 29.88 in WSW 0.1 mph 6 mph 86% 0.00 in 46 W/m2
07:19 71.9 °F 67.5 °F 29.88 in Calm   6 mph 86% 0.00 in 58 W/m2
07:24 72 °F 67.6 °F 29.88 in Calm   6 mph 86% 0.00 in 76 W/m2
07:29 72.1 °F 67.7 °F 29.88 in Calm   6 mph 86% 0.00 in 98 W/m2
07:34 72.2 °F 67.8 °F 29.88 in Calm   6 mph 86% 0.00 in 113 W/m2
07:39 72.4 °F 68 °F 29.88 in SW 0.3 mph 4 mph 86% 0.00 in 135 W/m2
07:44 72.6 °F 68.1 °F 29.88 in Calm   4 mph 86% 0.00 in 100 W/m2
07:49 72.7 °F 68.2 °F 29.89 in Calm   4 mph 85.6% 0.00 in 84 W/m2
07:54 72.8 °F 68.1 °F 29.89 in Calm   4 mph 85% 0.00 in 44 W/m2
07:59 72.9 °F 68.1 °F 29.89 in SW 0.1 mph 4 mph 85% 0.00 in 60 W/m2
08:00 72.9 °F 68.1 °F 29.88 in SW 1 mph 4 mph 85% 0.00 in 53 W/m2
08:09 72.9 °F 68.2 °F 29.88 in Calm     85% 0.00 in 54 W/m2
08:14 72.9 °F 68.2 °F 29.88 in SW 0.1 mph 2 mph 85% 0.00 in 46 W/m2
08:19 73 °F 68.2 °F 29.88 in Calm   2 mph 85% 0.00 in 76 W/m2
08:24 73 °F 68.2 °F 29.88 in Calm   2 mph 85% 0.00 in 74 W/m2
08:29 73 °F 68.2 °F 29.88 in SW 0.3 mph 5 mph 85% 0.00 in 86 W/m2
08:34 73.1 °F 68.5 °F 29.88 in Calm   5 mph 85.5% 0.00 in 91 W/m2
08:39 73.1 °F 68.6 °F 29.88 in Calm   2 mph 85.8% 0.00 in 98 W/m2
08:44 73.1 °F 68.4 °F 29.88 in SW 0.2 mph 4 mph 85.2% 0.00 in 102 W/m2
08:49 73.2 °F 68.8 °F 29.88 in SW 0.1 mph 4 mph 86% 0.00 in 97 W/m2
08:54 73.2 °F 68.6 °F 29.88 in Calm   4 mph 85.4% 0.00 in 91 W/m2
08:59 73.3 °F 68.5 °F 29.88 in Calm   4 mph 85% 0.00 in 76 W/m2
09:04 73.3 °F 68.5 °F 29.89 in Calm   4 mph 85% 0.00 in 49 W/m2
09:09 73.3 °F 68.5 °F 29.89 in Calm   1 mph 85% 0.00 in 30 W/m2
09:14 73.3 °F 68.5 °F 29.89 in SW 0.1 mph 3 mph 85% 0.02 in 32 W/m2
09:19 73.3 °F 68.9 °F 29.89 in Calm   3 mph 86% 0.04 in 19 W/m2
09:24 73.2 °F 69.1 °F 29.89 in Calm   3 mph 87% 0.04 in 18 W/m2
09:29 73.1 °F 69.1 °F 29.89 in Calm   3 mph 87.3% 0.04 in 12 W/m2
09:34 72.8 °F 69.1 °F 29.88 in Calm   3 mph 88% 0.13 in 26 W/m2
09:39 72.6 °F 69.1 °F 29.88 in Calm     88.8% 0.13 in 58 W/m2
09:44 72.4 °F 69 °F 29.88 in Calm     89.2% 0.13 in 63 W/m2
09:49 72.2 °F 69.1 °F 29.88 in Calm     90% 0.13 in 65 W/m2
09:54 72.1 °F 69.2 °F 29.88 in Calm     90.7% 0.14 in 83 W/m2
09:59 71.9 °F 69.2 °F 29.88 in Calm     91% 0.15 in 53 W/m2
10:04 71.8 °F 69.1 °F 29.88 in SW 0.1 mph 3 mph 91.1% 0.16 in 65 W/m2
10:09 71.7 °F 69.3 °F 29.88 in Calm   3 mph 92% 0.16 in 65 W/m2
10:14 71.6 °F 69.2 °F 29.88 in Calm   3 mph 92% 0.16 in 60 W/m2
10:19 71.6 °F 69.3 °F 29.88 in WSW 0.4 mph 4 mph 92.4% 0.16 in 118 W/m2
10:24 71.6 °F 69.5 °F 29.88 in Calm   4 mph 93% 0.17 in 121 W/m2
10:29 71.7 °F 69.6 °F 29.88 in Calm   4 mph 93% 0.17 in 214 W/m2
10:34 71.8 °F 69.7 °F 29.88 in Calm   4 mph 93% 0.17 in 214 W/m2
10:39 72 °F 69.8 °F 29.88 in Calm     93% 0.14 in 162 W/m2
10:44 72 °F 69.9 °F 29.87 in Calm     93% 0.14 in 160 W/m2
10:49 72.1 °F 69.9 °F 29.87 in Calm     93% 0.14 in 160 W/m2
10:54 72.1 °F 70 °F 29.87 in Calm     93% 0.14 in 125 W/m2
10:59 72 °F 69.9 °F 29.87 in Calm   1 mph 93% 0.16 in 98 W/m2
11:04 71.9 °F 69.8 °F 29.87 in Calm   1 mph 93.1% 0.16 in 105 W/m2
11:09 72 °F 70.1 °F 29.87 in Calm     94% 0.06 in 104 W/m2
11:14 72 °F 70.2 °F 29.87 in Calm     94% 0.06 in 127 W/m2
11:19 72.1 °F 70.3 °F 29.87 in Calm     94% 0.06 in 127 W/m2
11:24 72.2 °F 70.4 °F 29.87 in Calm     94% 0.07 in 107 W/m2
11:29 72.4 °F 70.5 °F 29.87 in Calm     94% 0.07 in 109 W/m2
11:34 72.4 °F 70.6 °F 29.87 in Calm     94% 0.07 in 118 W/m2
11:39 72.4 °F 70.6 °F 29.87 in Calm     94% 0.05 in 118 W/m2
11:44 72.4 °F 70.6 °F 29.87 in Calm     94% 0.05 in 118 W/m2
11:49 72.5 °F 70.7 °F 29.87 in Calm     94% 0.05 in 114 W/m2
11:54 72.6 °F 70.8 °F 29.88 in Calm     94% 0.05 in 104 W/m2
11:59 72.6 °F 70.8 °F 29.88 in Calm     94% 0.05 in 91 W/m2
12:00 72.6 °F 70.8 °F 29.88 in Calm     94% 0.05 in 77 W/m2
12:09 72.6 °F 70.8 °F 29.88 in Calm     94% 0.02 in 113 W/m2
12:14 72.6 °F 70.8 °F 29.88 in Calm     94% 0.02 in 113 W/m2
12:19 72.6 °F 70.8 °F 29.88 in Calm     94% 0.02 in 107 W/m2
12:24 72.7 °F 70.9 °F 29.88 in Calm     94% 0.02 in 95 W/m2
12:29 72.8 °F 71 °F 29.88 in Calm     94% 0.02 in 74 W/m2
12:34 72.8 °F 71 °F 29.88 in Calm     94% 0.02 in 62 W/m2
12:39 72.8 °F 71 °F 29.88 in Calm     94% 0.00 in 47 W/m2
12:44 72.8 °F 71 °F 29.88 in Calm     94% 0.00 in 37 W/m2
12:49 72.8 °F 71 °F 29.88 in Calm     94% 0.00 in 44 W/m2
12:54 72.8 °F 71 °F 29.87 in Calm     94% 0.00 in 81 W/m2
12:59 72.8 °F 71 °F 29.87 in Calm     94% 0.00 in 95 W/m2
13:04 72.8 °F 71 °F 29.87 in Calm     94% 0.00 in 120 W/m2
13:09 72.9 °F 71.3 °F 29.87 in Calm     94.7% 0.00 in 121 W/m2
13:14 73 °F 71.5 °F 29.87 in Calm     95% 0.00 in 97 W/m2
13:19 73.1 °F 71.6 °F 29.87 in Calm     95% 0.00 in 149 W/m2
13:24 73.1 °F 71.6 °F 29.87 in Calm   1 mph 95% 0.00 in 199 W/m2
13:29 73.3 °F 71.8 °F 29.87 in Calm   1 mph 95% 0.00 in 269 W/m2
13:34 73.6 °F 72.1 °F 29.87 in Calm   1 mph 95% 0.00 in 304 W/m2
13:39 73.9 °F 72.3 °F 29.87 in Calm     95% 0.00 in 403 W/m2
13:44 74 °F 72.5 °F 29.87 in Calm     95% 0.00 in 292 W/m2
13:49 74.2 °F 72.7 °F 29.87 in Calm     95% 0.00 in 213 W/m2
13:54 74.3 °F 72.8 °F 29.87 in Calm     95% 0.00 in 193 W/m2
13:59 74.3 °F 72.4 °F 29.87 in Calm     94% 0.00 in 171 W/m2
14:04 74.2 °F 72.3 °F 29.87 in Calm   3 mph 94% 0.00 in 169 W/m2
14:09 74 °F 72.2 °F 29.87 in Calm   3 mph 94% 0.00 in 81 W/m2
14:14 74 °F 72.2 °F 29.87 in Calm   3 mph 94% 0.04 in 76 W/m2
14:19 74.1 °F 72.3 °F 29.87 in Calm   3 mph 94% 0.17 in 42 W/m2
14:24 74.2 °F 72.4 °F 29.87 in Calm   3 mph 94% 0.27 in 33 W/m2
14:29 74.1 °F 72.3 °F 29.87 in WSW 0.2 mph 4 mph 94% 0.28 in 77 W/m2
14:34 74 °F 72.1 °F 29.87 in WSW 0.2 mph 4 mph 93.5% 0.28 in 98 W/m2
14:39 73.7 °F 71.6 °F 29.87 in WSW 0.3 mph 4 mph 93% 0.28 in 98 W/m2
14:44 73.3 °F 71.1 °F 29.87 in WSW 0.3 mph 4 mph 93% 0.29 in 67 W/m2
14:49 72.9 °F 70.8 °F 29.87 in WSW 0.4 mph 4 mph 93% 0.30 in 51 W/m2
14:54 72.7 °F 70.5 °F 29.87 in Calm   4 mph 93% 0.32 in 60 W/m2
14:59 72.4 °F 70.3 °F 29.87 in Calm   4 mph 93% 0.33 in 72 W/m2
15:04 72.3 °F 70.1 °F 29.87 in Calm   4 mph 93% 0.33 in 90 W/m2
15:09 72.1 °F 70 °F 29.87 in West 0.4 mph 4 mph 93% 0.33 in 97 W/m2
15:14 72 °F 69.9 °F 29.87 in Calm   4 mph 93% 0.34 in 100 W/m2
15:19 71.9 °F 69.8 °F 29.87 in Calm   4 mph 93% 0.34 in 105 W/m2
15:24 71.9 °F 70 °F 29.87 in Calm   4 mph 93.9% 0.35 in 91 W/m2
15:29 71.9 °F 70.1 °F 29.87 in Calm   4 mph 94% 0.35 in 104 W/m2
15:34 71.8 °F 70 °F 29.87 in Calm   4 mph 94% 0.35 in 211 W/m2
15:39 71.8 °F 70 °F 29.87 in Calm     94% 0.07 in 220 W/m2
15:44 71.9 °F 70.1 °F 29.87 in Calm     94% 0.07 in 190 W/m2
15:49 71.9 °F 70.1 °F 29.87 in Calm     94% 0.07 in 139 W/m2
15:54 72 °F 70.2 °F 29.87 in Calm     94% 0.07 in 104 W/m2
15:59 72 °F 70.2 °F 29.87 in Calm     94% 0.07 in 95 W/m2
16:09 72 °F 70.2 °F 29.87 in Calm     94% 0.02 in 97 W/m2
16:14 72 °F 70.2 °F 29.87 in Calm     94% 0.02 in 97 W/m2
16:19 72 °F 70.2 °F 29.87 in Calm     94% 0.02 in 72 W/m2
16:24 72 °F 70.2 °F 29.87 in Calm     94% 0.02 in 74 W/m2
16:29 71.9 °F 70.1 °F 29.87 in Calm     94% 0.03 in 74 W/m2
16:34 71.8 °F 70 °F 29.87 in Calm     94% 0.03 in 93 W/m2
16:39 71.7 °F 69.9 °F 29.87 in Calm     94% 0.01 in 95 W/m2
16:44 71.7 °F 69.9 °F 29.87 in Calm     94% 0.01 in 97 W/m2
16:49 71.8 °F 70 °F 29.87 in Calm     94% 0.01 in 118 W/m2
16:54 71.9 °F 70.1 °F 29.87 in Calm     94% 0.01 in 127 W/m2
16:59 71.9 °F 70.1 °F 29.87 in Calm     94% 0.01 in 120 W/m2
17:04 71.9 °F 70.1 °F 29.87 in Calm     94% 0.01 in 105 W/m2
17:09 71.9 °F 70.1 °F 29.87 in Calm     94% 0.01 in 90 W/m2
17:14 71.9 °F 70.1 °F 29.87 in Calm     94% 0.01 in 84 W/m2
17:19 71.9 °F 70.1 °F 29.87 in Calm     94% 0.01 in 83 W/m2
17:24 71.9 °F 70.1 °F 29.87 in Calm     94% 0.01 in 77 W/m2
17:29 71.8 °F 70 °F 29.87 in Calm     94% 0.01 in 83 W/m2
17:34 71.7 °F 69.9 °F 29.87 in Calm     94% 0.01 in 86 W/m2
17:39 71.6 °F 69.8 °F 29.87 in Calm     94% 0.00 in 91 W/m2
17:44 71.6 °F 69.8 °F 29.88 in Calm     94% 0.00 in 105 W/m2
17:49 71.6 °F 69.8 °F 29.88 in Calm     94% 0.00 in 109 W/m2
17:54 71.7 °F 69.9 °F 29.88 in Calm     94.2% 0.00 in 105 W/m2
17:59 71.6 °F 69.8 °F 29.88 in Calm     94% 0.00 in 104 W/m2
18:04 71.6 °F 69.8 °F 29.88 in Calm     94% 0.00 in 113 W/m2
18:09 71.5 °F 69.7 °F 29.89 in Calm     94% 0.00 in 116 W/m2
18:14 71.3 °F 69.5 °F 29.89 in Calm     94% 0.00 in 116 W/m2
18:19 71.2 °F 69.4 °F 29.89 in Calm     94% 0.00 in 107 W/m2
18:24 71.1 °F 69.3 °F 29.89 in Calm     94% 0.00 in 107 W/m2
18:29 71.1 °F 69.3 °F 29.90 in Calm     94% 0.00 in 121 W/m2
18:34 71 °F 69.2 °F 29.90 in Calm     94% 0.00 in 121 W/m2
18:39 70.9 °F 69.1 °F 29.90 in Calm     94% 0.00 in 113 W/m2
18:44 70.9 °F 69.1 °F 29.90 in Calm     94% 0.00 in 95 W/m2
18:49 70.9 °F 69.1 °F 29.90 in Calm     94% 0.00 in 77 W/m2
18:54 70.9 °F 69.1 °F 29.90 in Calm     94% 0.00 in 69 W/m2
18:59 70.8 °F 69 °F 29.90 in Calm     94% 0.00 in 62 W/m2
19:04 70.6 °F 68.8 °F 29.90 in Calm     94% 0.00 in 47 W/m2
19:09 70.5 °F 68.7 °F 29.90 in Calm     94% 0.00 in 47 W/m2
19:14 70.4 °F 68.6 °F 29.91 in Calm     94% 0.00 in 47 W/m2
19:19 70.4 °F 68.6 °F 29.91 in Calm     94% 0.00 in 44 W/m2
19:24 70.3 °F 68.5 °F 29.91 in Calm     94% 0.00 in 42 W/m2
19:29 70.2 °F 68.4 °F 29.91 in Calm     94% 0.00 in 40 W/m2
19:34 70.2 °F 68.4 °F 29.91 in Calm     94% 0.00 in 47 W/m2
19:39 70.2 °F 68.4 °F 29.91 in Calm     94% 0.00 in 47 W/m2
19:44 70.3 °F 68.5 °F 29.91 in Calm     94% 0.00 in 44 W/m2
19:49 70.3 °F 68.5 °F 29.91 in Calm     94% 0.00 in 42 W/m2
19:54 70.3 °F 68.5 °F 29.92 in Calm     94% 0.00 in 37 W/m2
19:59 70.3 °F 68.5 °F 29.92 in Calm     94% 0.00 in 37 W/m2
20:09 70.3 °F 68.5 °F 29.92 in Calm     94% 0.00 in 23 W/m2
20:14 70.3 °F 68.5 °F 29.92 in Calm     94% 0.00 in 18 W/m2
20:19 70.3 °F 68.5 °F 29.92 in Calm     94% 0.00 in 16 W/m2
20:24 70.3 °F 68.5 °F 29.92 in Calm     94% 0.00 in 14 W/m2
20:29 70.3 °F 68.5 °F 29.92 in Calm     94% 0.00 in 11 W/m2
20:34 70.3 °F 68.5 °F 29.93 in Calm     94% 0.00 in 9 W/m2
20:39 70.3 °F 68.5 °F 29.93 in Calm     94% 0.00 in 5 W/m2
20:44 70.2 °F 68.4 °F 29.93 in Calm     94% 0.00 in 0 W/m2
20:49 70.1 °F 68.3 °F 29.93 in Calm     94% 0.00 in 0 W/m2
20:54 70 °F 68.2 °F 29.93 in Calm     94% 0.00 in 0 W/m2
20:59 69.9 °F 68.1 °F 29.93 in Calm     94% 0.00 in 0 W/m2
21:04 69.9 °F 68.1 °F 29.93 in Calm     94% 0.00 in 0 W/m2
21:09 69.7 °F 67.9 °F 29.94 in Calm     94% 0.00 in 0 W/m2
21:14 69.6 °F 67.8 °F 29.94 in Calm     94% 0.00 in 0 W/m2
21:19 69.5 °F 67.7 °F 29.94 in Calm     94% 0.00 in 0 W/m2
21:23 69.3 °F 67.5 °F 29.95 in Calm     94% 0.00 in 0 W/m2
21:29 69.1 °F 67.3 °F 29.95 in Calm     94% 0.00 in 0 W/m2
21:34 69 °F 67.2 °F 29.95 in Calm     94% 0.00 in 0 W/m2
21:39 68.8 °F 67 °F 29.95 in Calm     94% 0.00 in 0 W/m2
21:44 68.7 °F 67.1 °F 29.95 in Calm     94.4% 0.00 in 0 W/m2
21:49 68.6 °F 66.8 °F 29.96 in Calm     94% 0.00 in 0 W/m2
21:54 68.5 °F 66.7 °F 29.96 in Calm     94% 0.00 in 0 W/m2
21:59 68.2 °F 66.4 °F 29.96 in Calm     94% 0.00 in 0 W/m2
22:04 67.8 °F 66 °F 29.96 in Calm     93.9% 0.00 in 0 W/m2
22:09 67.4 °F 65.3 °F 29.96 in Calm     93% 0.00 in 0 W/m2
22:14 66.9 °F 64.8 °F 29.96 in Calm     93% 0.00 in 0 W/m2
22:19 66.5 °F 64.4 °F 29.96 in West 0.1 mph 1 mph 93% 0.00 in 0 W/m2
22:24 66.2 °F 64.1 °F 29.96 in Calm   1 mph 93% 0.00 in 0 W/m2
22:29 66 °F 63.9 °F 29.96 in Calm   1 mph 93% 0.00 in 0 W/m2
22:34 65.8 °F 63.7 °F 29.96 in Calm   1 mph 93% 0.00 in 0 W/m2
22:39 65.6 °F 63.5 °F 29.96 in Calm     93% 0.00 in 0 W/m2
22:44 65.5 °F 63.4 °F 29.96 in Calm     93% 0.00 in 0 W/m2
22:49 65.3 °F 63.3 °F 29.96 in Calm     93% 0.00 in 0 W/m2
22:54 65.2 °F 62.9 °F 29.96 in Calm   1 mph 92.1% 0.00 in 0 W/m2
22:59 65 °F 62.6 °F 29.96 in West 0.1 mph 2 mph 91.8% 0.00 in 0 W/m2
23:04 64.9 °F 62.2 °F 29.97 in Calm   2 mph 91% 0.00 in 0 W/m2
23:09 64.8 °F 62 °F 29.97 in Calm     90.7% 0.00 in 0 W/m2
23:14 64.7 °F 61.7 °F 29.97 in Calm     90% 0.00 in 0 W/m2
23:19 64.6 °F 61.3 °F 29.97 in Calm   1 mph 89.1% 0.00 in 0 W/m2
23:24 64.5 °F 61.1 °F 29.97 in Calm   1 mph 88.8% 0.00 in 0 W/m2
23:29 64.5 °F 60.8 °F 29.97 in Calm   1 mph 88% 0.00 in 0 W/m2
23:34 64.4 °F 60.8 °F 29.97 in Calm   1 mph 88% 0.00 in 0 W/m2
23:39 64.3 °F 60.4 °F 29.97 in Calm     87% 0.00 in 0 W/m2
23:44 64.2 °F 60.2 °F 29.98 in Calm     86.7% 0.00 in 0 W/m2
23:49 64.2 °F 59.9 °F 29.98 in Calm     86% 0.00 in 0 W/m2
23:54 64.1 °F 59.8 °F 29.98 in Calm     85.8% 0.00 in 0 W/m2
23:59 64 °F 59.2 °F 29.98 in Calm     84.4% 0.00 in 0 W/m2
Hartford County Weather
Compliments of Weather Underground - 2 mb